• Join FlightAware (Why Join?)
  • Login
  • US Flag 
01:19PM EDT


 

Airport Tracker/Info


-or-


 

Live Flight TrackerFlight Track Log ✈ LXJ437 ✈ 22-Jun-2013 ✈ KSAN - KSBA

Flight Track Log - Related Links

Times and Time Zones

All times are in EDT time to prevent confusion due to time zone crossing. See the LXJ437 flight status page for this flight to view local times or setup timezone preferences in your user account.

Time Position Orientation Groundspeed Altitude Reporting Facility
EDT Latitude Longitude Course Direction KTS MPH feet Rate Location/Type
06:49PM 32.7472 -117.2258 310° West 175 201 2,500  Level Los Angeles Center
06:50PM 32.7786 -117.2892 301° West 212 244 6,400 3,540 Climbing Los Angeles Center
06:51PM 32.8206 -117.3675 303° West 250 288 9,800 3,600 Climbing Los Angeles Center
06:52PM 32.8672 -117.4564 302° West 289 333 13,900 2,820 Climbing Los Angeles Center
06:53PM 32.9514 -117.5353 322° Northwest 358 412 15,600 2,700 Climbing Los Angeles Center
06:54PM 33.0444 -117.6094 326° Northwest 389 448 19,500 3,360 Climbing Los Angeles Center
06:55PM 33.0148 -117.5874 310° West  Level FlightAware Approximate
06:55PM 33.1203 -117.7422 304° West 397 457 22,600  Level Los Angeles Center
06:56PM 33.1914 -117.8550 307° West 411 473 23,000 660 Climbing Los Angeles Center
06:57PM 33.2336 -117.9936 290° West 430 495 24,000 480 Climbing Los Angeles Center
06:58PM 33.2992 -118.1183 302° West 438 504 24,000  Level Los Angeles Center
07:00PM 33.3817 -118.2256 313° West 439 505 24,000  Level Los Angeles Center
07:01PM 33.4606 -118.3372 310° West 437 503 24,000  Level Los Angeles Center
07:02PM 33.5439 -118.4511 311° West 446 513 24,000  Level Los Angeles Center
07:03PM 33.6272 -118.5647 311° West 447 514 24,000  Level Los Angeles Center
07:04PM 33.6733 -118.7031 292° West 442 509 24,000  Level Los Angeles Center
07:05PM 33.7167 -118.8675 288° West 430 495 24,000 -1,560 Level Los Angeles Center
07:06PM 33.7511 -118.9856 289° West 376 433 20,900 -3,300 Descending Los Angeles Center
07:07PM 33.8294 -119.0731 317° Northwest 386 444 17,300 -3,420 Descending Los Angeles Center
07:08PM 33.9117 -119.1456 324° Northwest 365 420 13,900 -3,120 Descending Los Angeles Center
07:09PM 33.9878 -119.2156 323° Northwest 349 402 11,000 -2,160 Descending Los Angeles Center
07:10PM 34.0550 -119.2742 324° Northwest 306 352 9,500 -1,020 Descending Los Angeles Center
07:11PM 34.1128 -119.3339 319° Northwest 277 319 9,000 -300 Descending Los Angeles Center
07:11PM 34.1625 -119.3794 323° Northwest 277 319 9,000 -720 Level Los Angeles Center
07:12PM 34.2033 -119.4364 311° West 241 277 7,800 -1,380 Descending Los Angeles Center
07:14PM 34.2472 -119.5158 304° West 279 321 6,200 -1,740 Descending Los Angeles Center
07:15PM 34.2958 -119.6067 303° West 281 323 4,200 -1,740 Descending Los Angeles Center
07:16PM 34.3317 -119.6706 304° West 265 305 2,800 -1,200 Descending Los Angeles Center
07:16PM 34.3642 -119.7278 305° West 240 276 2,100 -600 Descending Los Angeles Center
07:17PM 34.3792 -119.7533 305° West 237 273 2,000 -660 Descending Los Angeles Center
07:18PM 34.4050 -119.7939 308° West 186 214 1,100 -780 Descending Los Angeles Center
07:19PM 34.4300 -119.8136 327° Northwest 143 165 400 -720 Descending Los Angeles Center
07:21PM 34.4167 -119.8333 311° West  Level FlightAware Approximate